sensor_id;sensor_type;location;lat;lon;timestamp;pressure;altitude;pressure_sealevel;temperature;humidity
50484;BME280;36409;52.168;20.878;2022-08-14T02:14:07;100259.28;;;19.56;73.39
50484;BME280;36409;52.168;20.878;2022-08-14T02:16:45;100264.52;;;19.57;73.06
50484;BME280;36409;52.168;20.878;2022-08-14T02:19:25;100260.06;;;19.58;73.44
50484;BME280;36409;52.168;20.878;2022-08-14T02:37:35;100225.91;;;19.53;73.35
50484;BME280;36409;52.168;20.878;2022-08-14T02:40:35;100221.64;;;19.51;73.79
50484;BME280;36409;52.168;20.878;2022-08-14T02:43:24;100222.48;;;19.51;73.54
50484;BME280;36409;52.168;20.878;2022-08-14T02:46:41;100223.41;;;19.50;74.02
50484;BME280;36409;52.168;20.878;2022-08-14T02:52:23;100213.86;;;19.48;73.55
50484;BME280;36409;52.168;20.878;2022-08-14T02:56:12;100220.24;;;19.43;73.42
50484;BME280;36409;52.168;20.878;2022-08-14T03:00:13;100221.27;;;19.41;73.73
50484;BME280;36409;52.168;20.878;2022-08-14T03:03:08;100218.72;;;19.39;73.93
50484;BME280;36409;52.168;20.878;2022-08-14T03:05:37;100220.48;;;19.39;73.54
50484;BME280;36409;52.168;20.878;2022-08-14T03:08:12;100218.78;;;19.38;73.94
50484;BME280;36409;52.168;20.878;2022-08-14T03:10:47;100212.55;;;19.39;73.92
50484;BME280;36409;52.168;20.878;2022-08-14T03:13:18;100207.36;;;19.37;73.71
50484;BME280;36409;52.168;20.878;2022-08-14T03:15:50;100209.13;;;19.37;73.45
50484;BME280;36409;52.168;20.878;2022-08-14T03:18:27;100203.15;;;19.33;73.81
50484;BME280;36409;52.168;20.878;2022-08-14T03:21:27;100200.70;;;19.30;73.68
50484;BME280;36409;52.168;20.878;2022-08-14T03:24:40;100201.00;;;19.24;73.75
50484;BME280;36409;52.168;20.878;2022-08-14T03:27:16;100193.06;;;19.24;74.06
50484;BME280;36409;52.168;20.878;2022-08-14T03:30:01;100200.07;;;19.25;74.16
50484;BME280;36409;52.168;20.878;2022-08-14T03:32:46;100192.97;;;19.25;73.82
50484;BME280;36409;52.168;20.878;2022-08-14T03:35:42;100186.84;;;19.25;74.07
50484;BME280;36409;52.168;20.878;2022-08-14T03:38:31;100188.65;;;19.24;74.06
50484;BME280;36409;52.168;20.878;2022-08-14T03:42:08;100191.30;;;19.24;74.40
50484;BME280;36409;52.168;20.878;2022-08-14T03:45:24;100192.04;;;19.26;74.08
50484;BME280;36409;52.168;20.878;2022-08-14T03:48:08;100187.62;;;19.27;73.83
50484;BME280;36409;52.168;20.878;2022-08-14T03:50:59;100195.46;;;19.28;74.21
50484;BME280;36409;52.168;20.878;2022-08-14T03:57:12;100194.38;;;19.33;74.24
50484;BME280;36409;52.168;20.878;2022-08-14T04:02:45;100187.03;;;19.38;74.00
50484;BME280;36409;52.168;20.878;2022-08-14T05:59:44;100198.67;;;21.79;72.15
50484;BME280;36409;52.168;20.878;2022-08-14T06:02:12;100194.60;;;21.73;71.75
50484;BME280;36409;52.168;20.878;2022-08-14T06:11:57;100191.44;;;21.96;72.05
50484;BME280;36409;52.168;20.878;2022-08-14T06:14:28;100189.05;;;22.05;71.74
50484;BME280;36409;52.168;20.878;2022-08-14T06:23:27;100181.30;;;22.15;71.75
50484;BME280;36409;52.168;20.878;2022-08-14T06:26:10;100180.46;;;22.15;71.54
50484;BME280;36409;52.168;20.878;2022-08-14T06:28:39;100175.34;;;22.12;71.65
50484;BME280;36409;52.168;20.878;2022-08-14T06:34:28;100186.88;;;22.25;71.92
50484;BME280;36409;52.168;20.878;2022-08-14T06:37:20;100179.54;;;22.29;71.59
50484;BME280;36409;52.168;20.878;2022-08-14T06:43:42;100186.31;;;22.20;71.75
50484;BME280;36409;52.168;20.878;2022-08-14T06:46:15;100189.84;;;22.20;71.49
50484;BME280;36409;52.168;20.878;2022-08-14T06:53:12;100192.82;;;22.56;72.17
50484;BME280;36409;52.168;20.878;2022-08-14T06:55:55;100185.72;;;22.70;71.93
50484;BME280;36409;52.168;20.878;2022-08-14T07:06:13;100192.66;;;22.98;71.58
50484;BME280;36409;52.168;20.878;2022-08-14T07:09:21;100184.66;;;23.11;71.85
50484;BME280;36409;52.168;20.878;2022-08-14T07:15:31;100190.13;;;23.35;71.60
50484;BME280;36409;52.168;20.878;2022-08-14T07:18:32;100196.50;;;23.46;71.48
50484;BME280;36409;52.168;20.878;2022-08-14T07:24:54;100191.50;;;23.78;70.87
50484;BME280;36409;52.168;20.878;2022-08-14T07:31:17;100170.99;;;23.91;70.35
50484;BME280;36409;52.168;20.878;2022-08-14T07:33:48;100184.10;;;23.95;70.53
50484;BME280;36409;52.168;20.878;2022-08-14T07:40:15;100179.13;;;24.14;70.60
50484;BME280;36409;52.168;20.878;2022-08-14T07:43:03;100187.75;;;24.18;70.16
50484;BME280;36409;52.168;20.878;2022-08-14T07:47:01;100177.61;;;24.23;69.71
50484;BME280;36409;52.168;20.878;2022-08-14T07:49:31;100176.91;;;24.32;69.83
50484;BME280;36409;52.168;20.878;2022-08-14T07:55:29;100171.23;;;24.37;69.45
50484;BME280;36409;52.168;20.878;2022-08-14T08:05:25;100168.63;;;24.60;69.59
50484;BME280;36409;52.168;20.878;2022-08-14T08:08:22;100177.98;;;24.65;69.31
50484;BME280;36409;52.168;20.878;2022-08-14T08:11:51;100183.88;;;24.82;69.66
50484;BME280;36409;52.168;20.878;2022-08-14T08:18:24;100177.24;;;25.10;68.96
50484;BME280;36409;52.168;20.878;2022-08-14T08:21:21;100172.87;;;25.32;69.30
50484;BME280;36409;52.168;20.878;2022-08-14T08:27:57;100167.88;;;25.50;68.39
50484;BME280;36409;52.168;20.878;2022-08-14T08:34:10;100170.69;;;25.49;68.11
50484;BME280;36409;52.168;20.878;2022-08-14T08:37:03;100171.78;;;25.57;68.07
50484;BME280;36409;52.168;20.878;2022-08-14T08:39:51;100173.11;;;25.63;67.92
50484;BME280;36409;52.168;20.878;2022-08-14T08:42:46;100180.38;;;25.72;68.17
50484;BME280;36409;52.168;20.878;2022-08-14T08:45:28;100177.70;;;25.72;67.94
50484;BME280;36409;52.168;20.878;2022-08-14T08:48:46;100180.38;;;25.72;67.50
50484;BME280;36409;52.168;20.878;2022-08-14T08:54:27;100174.34;;;26.03;67.08
50484;BME280;36409;52.168;20.878;2022-08-14T08:57:09;100179.55;;;26.16;67.25
50484;BME280;36409;52.168;20.878;2022-08-14T08:59:59;100174.80;;;26.08;66.87
50484;BME280;36409;52.168;20.878;2022-08-14T09:02:59;100175.70;;;25.97;66.89
50484;BME280;36409;52.168;20.878;2022-08-14T09:05:30;100185.77;;;26.05;66.65
50484;BME280;36409;52.168;20.878;2022-08-14T10:22:33;100117.81;;;29.00;61.16
50484;BME280;36409;52.168;20.878;2022-08-14T10:25:22;100119.80;;;28.98;60.74
50484;BME280;36409;52.168;20.878;2022-08-14T10:27:57;100123.53;;;28.87;60.69
50484;BME280;36409;52.168;20.878;2022-08-14T10:30:33;100123.13;;;28.72;60.58
50484;BME280;36409;52.168;20.878;2022-08-14T10:33:03;100120.03;;;28.57;60.44
50484;BME280;36409;52.168;20.878;2022-08-14T10:35:41;100122.92;;;28.36;60.63
50484;BME280;36409;52.168;20.878;2022-08-14T10:38:26;100126.59;;;28.35;60.73
50484;BME280;36409;52.168;20.878;2022-08-14T10:41:09;100123.55;;;28.77;61.01
50484;BME280;36409;52.168;20.878;2022-08-14T10:43:42;100120.16;;;29.13;60.89
50484;BME280;36409;52.168;20.878;2022-08-14T10:46:16;100118.52;;;29.02;60.49
50484;BME280;36409;52.168;20.878;2022-08-14T10:49:04;100114.84;;;29.03;60.26
50484;BME280;36409;52.168;20.878;2022-08-14T10:51:37;100113.98;;;29.03;60.13
50484;BME280;36409;52.168;20.878;2022-08-14T10:54:10;100111.06;;;29.24;60.19
50484;BME280;36409;52.168;20.878;2022-08-14T10:57:15;100117.31;;;29.70;60.10
50484;BME280;36409;52.168;20.878;2022-08-14T10:59:49;100111.55;;;30.19;59.47
50484;BME280;36409;52.168;20.878;2022-08-14T11:02:24;100107.66;;;30.58;58.80
50484;BME280;36409;52.168;20.878;2022-08-14T11:05:17;100107.11;;;30.81;58.54
50484;BME280;36409;52.168;20.878;2022-08-14T11:07:56;100102.19;;;31.11;57.97
50484;BME280;36409;52.168;20.878;2022-08-14T11:10:44;100099.78;;;31.34;57.67
50484;BME280;36409;52.168;20.878;2022-08-14T11:13:17;100089.20;;;31.49;56.84
50484;BME280;36409;52.168;20.878;2022-08-14T11:15:52;100085.39;;;31.77;56.78
50484;BME280;36409;52.168;20.878;2022-08-14T11:18:23;100090.47;;;31.80;55.66
50484;BME280;36409;52.168;20.878;2022-08-14T11:21:05;100086.37;;;31.67;56.14
50484;BME280;36409;52.168;20.878;2022-08-14T11:23:35;100081.84;;;31.76;55.41
50484;BME280;36409;52.168;20.878;2022-08-14T11:26:13;100089.42;;;31.72;55.54
50484;BME280;36409;52.168;20.878;2022-08-14T11:28:46;100093.98;;;31.80;55.52
50484;BME280;36409;52.168;20.878;2022-08-14T11:31:19;100094.91;;;31.46;54.81
50484;BME280;36409;52.168;20.878;2022-08-14T11:33:51;100089.43;;;31.13;54.87
50484;BME280;36409;52.168;20.878;2022-08-14T11:36:25;100092.02;;;30.96;54.90
50484;BME280;36409;52.168;20.878;2022-08-14T11:39:19;100091.40;;;30.68;54.94
50484;BME280;36409;52.168;20.878;2022-08-14T11:42:01;100090.88;;;30.46;54.79
50484;BME280;36409;52.168;20.878;2022-08-14T11:44:51;100092.05;;;30.44;55.07
50484;BME280;36409;52.168;20.878;2022-08-14T11:47:28;100100.02;;;30.27;54.95
50484;BME280;36409;52.168;20.878;2022-08-14T11:50:12;100101.11;;;30.43;54.87
50484;BME280;36409;52.168;20.878;2022-08-14T11:52:52;100101.76;;;30.37;55.38
50484;BME280;36409;52.168;20.878;2022-08-14T11:55:35;100088.18;;;30.46;55.34
50484;BME280;36409;52.168;20.878;2022-08-14T11:58:08;100091.61;;;30.30;55.19
50484;BME280;36409;52.168;20.878;2022-08-14T12:00:56;100094.50;;;30.11;54.99
50484;BME280;36409;52.168;20.878;2022-08-14T12:03:36;100085.98;;;29.97;54.96
50484;BME280;36409;52.168;20.878;2022-08-14T12:06:20;100086.71;;;29.89;55.30
50484;BME280;36409;52.168;20.878;2022-08-14T12:09:07;100085.58;;;29.92;55.08
50484;BME280;36409;52.168;20.878;2022-08-14T12:11:43;100076.83;;;30.08;55.09
50484;BME280;36409;52.168;20.878;2022-08-14T12:14:19;100073.38;;;30.42;55.19
50484;BME280;36409;52.168;20.878;2022-08-14T12:17:04;100074.17;;;30.61;55.19
50484;BME280;36409;52.168;20.878;2022-08-14T12:19:44;100070.03;;;30.75;55.24
50484;BME280;36409;52.168;20.878;2022-08-14T12:22:19;100087.66;;;30.95;55.01
50484;BME280;36409;52.168;20.878;2022-08-14T12:25:00;100070.34;;;31.06;54.46
50484;BME280;36409;52.168;20.878;2022-08-14T12:27:37;100068.61;;;30.89;54.13
50484;BME280;36409;52.168;20.878;2022-08-14T12:30:30;100068.61;;;30.89;54.14
50484;BME280;36409;52.168;20.878;2022-08-14T12:33:19;100067.91;;;30.87;54.43
50484;BME280;36409;52.168;20.878;2022-08-14T12:35:54;100065.95;;;31.05;54.31
50484;BME280;36409;52.168;20.878;2022-08-14T12:38:34;100066.47;;;31.09;53.62
50484;BME280;36409;52.168;20.878;2022-08-14T12:41:08;100062.06;;;31.00;53.77
50484;BME280;36409;52.168;20.878;2022-08-14T12:43:45;100049.27;;;30.93;53.54
50484;BME280;36409;52.168;20.878;2022-08-14T12:46:27;100053.95;;;30.91;53.80
50484;BME280;36409;52.168;20.878;2022-08-14T12:48:59;100048.91;;;30.96;53.57
50484;BME280;36409;52.168;20.878;2022-08-14T12:51:31;100047.09;;;31.05;53.24
50484;BME280;36409;52.168;20.878;2022-08-14T12:54:12;100053.73;;;31.19;53.17
50484;BME280;36409;52.168;20.878;2022-08-14T12:57:04;100044.32;;;31.23;52.80
50484;BME280;36409;52.168;20.878;2022-08-14T12:59:36;100048.03;;;31.31;52.96
50484;BME280;36409;52.168;20.878;2022-08-14T13:02:21;100038.98;;;31.40;52.55
50484;BME280;36409;52.168;20.878;2022-08-14T13:04:54;100043.14;;;31.26;52.69
50484;BME280;36409;52.168;20.878;2022-08-14T13:07:27;100032.58;;;31.41;52.80
50484;BME280;36409;52.168;20.878;2022-08-14T13:10:00;100036.97;;;31.67;52.93
50484;BME280;36409;52.168;20.878;2022-08-14T13:12:51;100029.24;;;31.88;52.71
50484;BME280;36409;52.168;20.878;2022-08-14T13:15:43;100017.95;;;32.01;52.47
50484;BME280;36409;52.168;20.878;2022-08-14T13:18:14;100015.42;;;32.08;52.15
50484;BME280;36409;52.168;20.878;2022-08-14T13:20:44;100000.89;;;32.17;52.08
50484;BME280;36409;52.168;20.878;2022-08-14T13:23:25;100000.37;;;32.22;51.45
50484;BME280;36409;52.168;20.878;2022-08-14T13:26:06;100000.73;;;32.11;51.62
50484;BME280;36409;52.168;20.878;2022-08-14T13:28:38;99987.11;;;31.96;51.13
50484;BME280;36409;52.168;20.878;2022-08-14T13:31:30;99997.58;;;31.74;51.14
50484;BME280;36409;52.168;20.878;2022-08-14T13:34:04;99999.05;;;31.52;50.84
50484;BME280;36409;52.168;20.878;2022-08-14T13:36:34;100005.45;;;31.42;51.21
50484;BME280;36409;52.168;20.878;2022-08-14T13:39:24;99996.17;;;31.37;51.06
50484;BME280;36409;52.168;20.878;2022-08-14T13:41:53;99994.59;;;31.09;50.93
50484;BME280;36409;52.168;20.878;2022-08-14T13:44:25;99991.63;;;30.78;51.20
50484;BME280;36409;52.168;20.878;2022-08-14T13:46:55;99989.54;;;30.63;51.25
50484;BME280;36409;52.168;20.878;2022-08-14T13:49:25;99976.13;;;30.72;51.67
50484;BME280;36409;52.168;20.878;2022-08-14T13:51:57;99983.33;;;30.63;51.52
50484;BME280;36409;52.168;20.878;2022-08-14T13:54:33;99986.82;;;30.55;51.84
50484;BME280;36409;52.168;20.878;2022-08-14T13:57:05;99980.80;;;30.61;51.77
50484;BME280;36409;52.168;20.878;2022-08-14T13:59:43;99974.96;;;30.40;51.74
50484;BME280;36409;52.168;20.878;2022-08-14T14:02:13;99980.00;;;30.43;52.01
50484;BME280;36409;52.168;20.878;2022-08-14T14:05:03;99982.48;;;30.36;52.01
50484;BME280;36409;52.168;20.878;2022-08-14T14:07:33;99984.69;;;30.41;51.64
50484;BME280;36409;52.168;20.878;2022-08-14T14:10:09;99980.48;;;30.38;51.98
50484;BME280;36409;52.168;20.878;2022-08-14T14:12:38;99985.72;;;30.40;52.22
50484;BME280;36409;52.168;20.878;2022-08-14T14:15:11;99981.76;;;30.26;51.89
50484;BME280;36409;52.168;20.878;2022-08-14T14:17:47;99984.80;;;30.23;52.07
50484;BME280;36409;52.168;20.878;2022-08-14T14:20:26;99981.51;;;30.11;51.83
50484;BME280;36409;52.168;20.878;2022-08-14T14:23:03;99977.44;;;30.07;51.92
50484;BME280;36409;52.168;20.878;2022-08-14T14:25:44;99972.88;;;29.99;51.76
50484;BME280;36409;52.168;20.878;2022-08-14T14:28:29;99971.07;;;29.89;51.97
50484;BME280;36409;52.168;20.878;2022-08-14T14:31:01;99967.33;;;29.82;52.22
50484;BME280;36409;52.168;20.878;2022-08-14T14:33:35;99963.37;;;29.68;52.12
50484;BME280;36409;52.168;20.878;2022-08-14T14:36:21;99960.63;;;29.60;52.21
50484;BME280;36409;52.168;20.878;2022-08-14T14:38:56;99959.94;;;29.58;52.49
50484;BME280;36409;52.168;20.878;2022-08-14T14:41:27;99954.69;;;29.56;52.54
50484;BME280;36409;52.168;20.878;2022-08-14T14:44:07;99952.34;;;29.53;52.59
50484;BME280;36409;52.168;20.878;2022-08-14T14:46:37;99956.63;;;29.46;52.62
50484;BME280;36409;52.168;20.878;2022-08-14T14:49:15;99961.34;;;29.44;52.57
50484;BME280;36409;52.168;20.878;2022-08-14T14:51:49;99965.85;;;29.43;52.69
50484;BME280;36409;52.168;20.878;2022-08-14T14:54:21;99964.46;;;29.39;52.65
50484;BME280;36409;52.168;20.878;2022-08-14T14:57:05;99956.73;;;29.36;52.93
50484;BME280;36409;52.168;20.878;2022-08-14T14:59:37;99973.75;;;29.27;52.92
50484;BME280;36409;52.168;20.878;2022-08-14T15:02:07;99967.50;;;29.08;52.67
50484;BME280;36409;52.168;20.878;2022-08-14T15:04:43;99970.40;;;28.97;52.95
50484;BME280;36409;52.168;20.878;2022-08-14T15:07:13;99970.32;;;28.89;52.98
50484;BME280;36409;52.168;20.878;2022-08-14T15:09:47;99967.30;;;28.74;53.21
50484;BME280;36409;52.168;20.878;2022-08-14T15:12:16;99971.97;;;28.72;53.34
50484;BME280;36409;52.168;20.878;2022-08-14T15:15:20;99974.53;;;28.63;53.44
50484;BME280;36409;52.168;20.878;2022-08-14T15:17:50;99975.55;;;28.53;53.53
50484;BME280;36409;52.168;20.878;2022-08-14T15:20:22;99981.71;;;28.35;53.79
50484;BME280;36409;52.168;20.878;2022-08-14T15:22:58;99973.53;;;28.27;53.75
50484;BME280;36409;52.168;20.878;2022-08-14T15:25:27;99975.40;;;28.16;53.79
50484;BME280;36409;52.168;20.878;2022-08-14T15:27:57;99982.77;;;28.14;53.92
50484;BME280;36409;52.168;20.878;2022-08-14T15:30:28;99977.09;;;28.17;54.20
50484;BME280;36409;52.168;20.878;2022-08-14T15:33:00;99975.82;;;28.22;53.91
50484;BME280;36409;52.168;20.878;2022-08-14T15:35:29;99972.43;;;28.19;54.25
50484;BME280;36409;52.168;20.878;2022-08-14T15:38:02;99978.67;;;28.10;54.25
50484;BME280;36409;52.168;20.878;2022-08-14T15:40:36;99981.20;;;28.12;54.55
50484;BME280;36409;52.168;20.878;2022-08-14T15:43:23;99974.85;;;28.13;54.53
50484;BME280;36409;52.168;20.878;2022-08-14T15:46:17;99975.72;;;28.13;54.76
50484;BME280;36409;52.168;20.878;2022-08-14T15:49:08;99976.70;;;28.12;54.68
50484;BME280;36409;52.168;20.878;2022-08-14T15:51:38;99970.47;;;28.12;54.98
50484;BME280;36409;52.168;20.878;2022-08-14T15:54:34;99972.73;;;28.07;54.95
50484;BME280;36409;52.168;20.878;2022-08-14T15:57:05;99975.98;;;28.00;55.06
50484;BME280;36409;52.168;20.878;2022-08-14T15:59:36;99974.72;;;27.95;55.32
50484;BME280;36409;52.168;20.878;2022-08-14T16:02:26;99972.90;;;27.95;55.36
50484;BME280;36409;52.168;20.878;2022-08-14T16:04:55;99973.34;;;27.90;55.54
50484;BME280;36409;52.168;20.878;2022-08-14T16:07:34;99983.34;;;27.88;55.48
50484;BME280;36409;52.168;20.878;2022-08-14T16:10:22;99988.84;;;27.87;55.69
50484;BME280;36409;52.168;20.878;2022-08-14T16:16:37;99985.75;;;27.72;55.81
50484;BME280;36409;52.168;20.878;2022-08-14T16:19:46;99986.34;;;27.66;55.93
50484;BME280;36409;52.168;20.878;2022-08-14T16:22:21;99981.25;;;27.63;55.88
50484;BME280;36409;52.168;20.878;2022-08-14T16:25:15;99979.83;;;27.58;56.12
50484;BME280;36409;52.168;20.878;2022-08-14T16:28:41;99982.11;;;27.53;56.16
50484;BME280;36409;52.168;20.878;2022-08-14T16:31:36;99978.31;;;27.46;56.08
50484;BME280;36409;52.168;20.878;2022-08-14T16:34:24;99975.31;;;27.39;56.14
50484;BME280;36409;52.168;20.878;2022-08-14T16:37:32;99979.41;;;27.34;56.51
50484;BME280;36409;52.168;20.878;2022-08-14T16:40:27;99972.47;;;27.31;56.54
50484;BME280;36409;52.168;20.878;2022-08-14T16:43:17;99960.36;;;27.27;56.56
50484;BME280;36409;52.168;20.878;2022-08-14T16:45:54;99953.73;;;27.21;56.54
50484;BME280;36409;52.168;20.878;2022-08-14T16:48:34;99949.52;;;27.19;56.79
50484;BME280;36409;52.168;20.878;2022-08-14T16:52:01;99946.83;;;27.19;56.83
50484;BME280;36409;52.168;20.878;2022-08-14T16:54:50;99944.27;;;27.17;56.84
50484;BME280;36409;52.168;20.878;2022-08-14T17:04:03;99936.52;;;27.04;57.53
50484;BME280;36409;52.168;20.878;2022-08-14T17:06:42;99941.31;;;27.01;57.60
50484;BME280;36409;52.168;20.878;2022-08-14T17:10:04;99940.16;;;26.93;57.65
50484;BME280;36409;52.168;20.878;2022-08-14T17:13:59;99936.34;;;26.86;57.96
50484;BME280;36409;52.168;20.878;2022-08-14T17:16:34;99934.09;;;26.81;58.05
50484;BME280;36409;52.168;20.878;2022-08-14T17:19:07;99932.63;;;26.77;58.25
50484;BME280;36409;52.168;20.878;2022-08-14T17:21:47;99947.14;;;26.75;58.23
50484;BME280;36409;52.168;20.878;2022-08-14T17:24:45;99951.78;;;26.73;58.62
50484;BME280;36409;52.168;20.878;2022-08-14T17:27:36;99952.04;;;26.70;58.58
50484;BME280;36409;52.168;20.878;2022-08-14T17:30:11;99956.26;;;26.62;58.76
50484;BME280;36409;52.168;20.878;2022-08-14T17:33:13;99953.53;;;26.52;58.83
50484;BME280;36409;52.168;20.878;2022-08-14T17:36:14;99953.38;;;26.44;58.93
50484;BME280;36409;52.168;20.878;2022-08-14T17:39:06;99958.16;;;26.41;59.17
50484;BME280;36409;52.168;20.878;2022-08-14T17:49:13;99986.83;;;26.29;59.74
50484;BME280;36409;52.168;20.878;2022-08-14T17:52:21;99972.99;;;26.24;59.90
50484;BME280;36409;52.168;20.878;2022-08-14T17:59:40;99961.59;;;26.00;60.32
50484;BME280;36409;52.168;20.878;2022-08-14T18:02:12;99966.00;;;25.90;60.06
50484;BME280;36409;52.168;20.878;2022-08-14T18:09:03;99975.39;;;25.63;60.52
50484;BME280;36409;52.168;20.878;2022-08-14T18:19:40;99949.19;;;25.24;60.99
50484;BME280;36409;52.168;20.878;2022-08-14T18:22:41;99944.61;;;25.15;61.27
50484;BME280;36409;52.168;20.878;2022-08-14T18:25:15;99938.92;;;25.08;61.61
50484;BME280;36409;52.168;20.878;2022-08-14T18:31:52;99958.73;;;24.83;61.76
50484;BME280;36409;52.168;20.878;2022-08-14T18:34:22;99976.22;;;24.76;62.19
50484;BME280;36409;52.168;20.878;2022-08-14T18:37:22;99980.56;;;24.65;62.44
50484;BME280;36409;52.168;20.878;2022-08-14T18:40:36;99986.50;;;24.58;62.64
50484;BME280;36409;52.168;20.878;2022-08-14T18:43:50;99982.41;;;24.54;62.95
50484;BME280;36409;52.168;20.878;2022-08-14T18:46:27;99980.70;;;24.52;62.45
50484;BME280;36409;52.168;20.878;2022-08-14T18:53:18;99964.07;;;24.49;62.27
50484;BME280;36409;52.168;20.878;2022-08-14T18:55:53;99956.70;;;24.41;62.26
50484;BME280;36409;52.168;20.878;2022-08-14T19:03:02;99942.87;;;24.25;61.75
50484;BME280;36409;52.168;20.878;2022-08-14T19:05:56;99934.50;;;24.18;62.05
50484;BME280;36409;52.168;20.878;2022-08-14T19:08:25;99939.45;;;24.11;61.99
50484;BME280;36409;52.168;20.878;2022-08-14T19:10:56;99942.39;;;24.08;61.76
50484;BME280;36409;52.168;20.878;2022-08-14T19:13:56;99942.11;;;24.00;62.00
50484;BME280;36409;52.168;20.878;2022-08-14T19:16:33;99947.89;;;23.94;61.52
50484;BME280;36409;52.168;20.878;2022-08-14T19:20:05;99947.87;;;23.82;61.39
50484;BME280;36409;52.168;20.878;2022-08-14T19:24:08;99948.58;;;23.73;61.59
50484;BME280;36409;52.168;20.878;2022-08-14T19:31:35;99958.33;;;23.61;61.53
50484;BME280;36409;52.168;20.878;2022-08-14T19:38:56;99956.67;;;23.36;61.61
50484;BME280;36409;52.168;20.878;2022-08-14T19:45:56;99937.06;;;23.12;62.14
50484;BME280;36409;52.168;20.878;2022-08-14T19:48:25;99933.88;;;23.07;62.64
50484;BME280;36409;52.168;20.878;2022-08-14T19:54:49;99918.81;;;22.95;62.52
50484;BME280;36409;52.168;20.878;2022-08-14T20:01:28;99928.55;;;22.83;62.92
50484;BME280;36409;52.168;20.878;2022-08-14T20:16:53;99939.21;;;22.70;63.30
50484;BME280;36409;52.168;20.878;2022-08-14T20:40:24;99924.48;;;22.14;63.58
50484;BME280;36409;52.168;20.878;2022-08-14T20:43:14;99924.61;;;22.13;63.73
50484;BME280;36409;52.168;20.878;2022-08-14T20:57:24;99930.54;;;21.78;64.64
50484;BME280;36409;52.168;20.878;2022-08-14T21:05:06;99928.72;;;21.65;64.62
50484;BME280;36409;52.168;20.878;2022-08-14T21:12:24;99929.78;;;21.63;65.36
50484;BME280;36409;52.168;20.878;2022-08-14T21:27:18;99957.31;;;21.47;65.56
50484;BME280;36409;52.168;20.878;2022-08-14T21:29:51;99951.36;;;21.43;65.62
50484;BME280;36409;52.168;20.878;2022-08-14T21:44:08;99937.31;;;21.01;66.14
50484;BME280;36409;52.168;20.878;2022-08-14T21:50:52;99925.25;;;20.82;66.51
50484;BME280;36409;52.168;20.878;2022-08-14T22:05:55;99906.11;;;20.63;66.82
50484;BME280;36409;52.168;20.878;2022-08-14T22:14:03;99904.34;;;20.49;67.17
50484;BME280;36409;52.168;20.878;2022-08-14T22:16:54;99902.82;;;20.45;67.46
50484;BME280;36409;52.168;20.878;2022-08-14T22:24:19;99891.86;;;20.36;67.65
50484;BME280;36409;52.168;20.878;2022-08-14T22:27:18;99897.16;;;20.36;68.27
50484;BME280;36409;52.168;20.878;2022-08-14T22:31:36;99897.62;;;20.29;67.78
50484;BME280;36409;52.168;20.878;2022-08-14T22:34:12;99899.52;;;20.27;68.38
50484;BME280;36409;52.168;20.878;2022-08-14T22:37:14;99898.68;;;20.26;68.06
50484;BME280;36409;52.168;20.878;2022-08-14T22:40:35;99893.48;;;20.25;68.45
50484;BME280;36409;52.168;20.878;2022-08-14T22:48:09;99906.34;;;20.16;68.16
50484;BME280;36409;52.168;20.878;2022-08-14T23:02:35;99905.41;;;20.03;68.70
